Terminal Aerodrome Forecast
Issued by NWS

Home | Current Version | Previous Version | Text Only | Print | Product List | Glossary On
Versions: 1 2 3 4 5 6 7 8 9 10 11 12 13 14 15
000
FTUS41 KCAR 021040 AAA
TAFFVE
TAF AMD
KFVE 021040Z 0211/0306 VRB03KT 6SM -SN OVC035
     FM021200 VRB03KT 3SM -SN OVC030
     FM021800 31013KT P6SM OVC035
     FM022200 30014G21KT 1SM -SHSN OVC030
     FM030100 30015G24KT P6SM SCT030=

USA.gov is the U.S. government's official web portal to all federal, state and local government web resources and services.